createdAt,value
2019-02-14T00:00:10.286Z,14.45
2019-02-14T00:02:38.817Z,14.28
2019-02-14T00:05:15.877Z,12.90
2019-02-14T00:07:37.454Z,17.85
2019-02-14T00:10:08.678Z,14.58
2019-02-14T00:12:37.116Z,11.85
2019-02-14T00:15:13.290Z,16.30
2019-02-14T00:17:41.739Z,15.78
2019-02-14T00:20:10.568Z,13.68
2019-02-14T00:22:39.086Z,12.37
2019-02-14T00:25:07.692Z,13.70
2019-02-14T00:27:36.203Z,15.35
2019-02-14T00:30:06.508Z,14.35
2019-02-14T00:32:35.045Z,19.75
2019-02-14T00:35:03.699Z,14.55
2019-02-14T00:37:32.154Z,13.78
2019-02-14T00:40:00.628Z,15.83
2019-02-14T00:42:29.178Z,12.58
2019-02-14T00:44:57.703Z,16.97
2019-02-14T00:47:26.113Z,12.00
2019-02-14T00:49:54.575Z,13.05
2019-02-14T00:52:23.092Z,13.72
2019-02-14T00:54:51.550Z,14.87
2019-02-14T00:57:20.164Z,14.85
2019-02-14T00:59:48.702Z,13.08
2019-02-14T01:02:17.230Z,13.38
2019-02-14T01:04:45.673Z,15.23
2019-02-14T01:07:14.178Z,12.98
2019-02-14T01:09:42.737Z,12.35
2019-02-14T01:12:11.547Z,11.08
2019-02-14T01:14:40.117Z,13.10
2019-02-14T01:17:08.714Z,14.55
2019-02-14T01:19:37.277Z,11.90
2019-02-14T01:22:05.987Z,11.68
2019-02-14T01:24:34.426Z,14.98
2019-02-14T01:27:02.915Z,12.43
2019-02-14T01:29:31.433Z,11.93
2019-02-14T01:31:59.950Z,8.45
2019-02-14T01:34:28.470Z,8.83
2019-02-14T01:36:57.080Z,4.15
2019-02-14T01:39:25.518Z,10.93
2019-02-14T01:41:54.033Z,11.57
2019-02-14T01:44:22.616Z,10.13
2019-02-14T01:46:51.105Z,7.72
2019-02-14T01:49:19.538Z,6.95
2019-02-14T01:51:48.039Z,9.23
2019-02-14T01:54:16.535Z,6.08
2019-02-14T01:56:45.039Z,8.20
2019-02-14T01:59:13.628Z,8.30
2019-02-14T02:01:42.120Z,5.83
2019-02-14T02:04:10.580Z,6.95
2019-02-14T02:06:39.177Z,11.33
2019-02-14T02:09:07.683Z,7.33
2019-02-14T02:11:36.136Z,5.45
2019-02-14T02:14:04.933Z,11.22
2019-02-14T02:16:33.484Z,8.43
2019-02-14T02:19:01.951Z,5.17
2019-02-14T02:21:30.487Z,11.28
2019-02-14T02:23:59.078Z,6.60
2019-02-14T02:26:27.611Z,9.85
2019-02-14T02:28:56.132Z,9.98
2019-02-14T02:31:24.578Z,7.20
2019-02-14T02:33:53.059Z,7.72
2019-02-14T02:36:21.623Z,7.33
2019-02-14T02:38:50.082Z,8.73
2019-02-14T02:41:18.513Z,7.10
2019-02-14T02:43:47.014Z,9.25
2019-02-14T02:46:15.489Z,8.93
2019-02-14T02:48:43.962Z,7.92
2019-02-14T02:51:12.504Z,6.55
2019-02-14T02:53:40.974Z,7.08
2019-02-14T02:56:09.492Z,8.88
2019-02-14T02:58:37.997Z,10.63
2019-02-14T03:01:06.552Z,9.40
2019-02-14T03:03:35.057Z,10.82
2019-02-14T03:08:40.304Z,16.27
2019-02-14T03:11:08.817Z,12.20
2019-02-14T03:13:37.221Z,8.00
2019-02-14T03:16:05.706Z,8.85
2019-02-14T03:18:34.182Z,7.75
2019-02-14T03:21:02.668Z,8.48
2019-02-14T03:23:31.262Z,8.28
2019-02-14T03:25:59.721Z,9.98
2019-02-14T03:28:28.306Z,9.48
2019-02-14T03:30:56.931Z,10.25
2019-02-14T03:33:25.353Z,7.92
2019-02-14T03:35:53.775Z,10.82
2019-02-14T03:38:22.300Z,7.85
2019-02-14T03:40:50.777Z,10.78
2019-02-14T03:43:19.267Z,13.05
2019-02-14T03:45:47.818Z,7.70
2019-02-14T03:48:16.262Z,12.90
2019-02-14T03:50:44.813Z,10.28
2019-02-14T03:53:13.330Z,8.63
2019-02-14T03:55:41.794Z,7.35
2019-02-14T03:58:10.307Z,9.85
2019-02-14T04:07:36.242Z,8.43
2019-02-14T04:10:13.866Z,8.75
2019-02-14T04:12:42.380Z,9.45
2019-02-14T04:15:14.170Z,9.70
2019-02-14T04:17:42.689Z,14.28
2019-02-14T04:20:11.773Z,13.20
2019-02-14T04:22:40.287Z,9.23
2019-02-14T04:25:09.863Z,10.32
2019-02-14T04:27:38.361Z,10.40
2019-02-14T04:30:09.914Z,10.80
2019-02-14T04:32:38.417Z,9.38
2019-02-14T04:35:06.944Z,17.57
2019-02-14T04:37:35.386Z,12.28
2019-02-14T04:40:08.694Z,12.10
2019-02-14T04:42:37.274Z,15.78
2019-02-14T04:45:07.136Z,14.90
2019-02-14T04:47:35.600Z,9.40
2019-02-14T04:50:05.132Z,13.13
2019-02-14T04:52:33.612Z,18.50
2019-02-14T04:55:02.066Z,13.32
2019-02-14T04:57:30.677Z,12.05
2019-02-14T04:59:59.122Z,12.78
2019-02-14T05:02:27.597Z,15.50
2019-02-14T05:04:56.119Z,14.50
2019-02-14T05:07:24.573Z,14.60
2019-02-14T05:09:53.091Z,8.18
2019-02-14T05:12:21.586Z,13.98
2019-02-14T05:14:50.097Z,12.28
2019-02-14T05:17:18.549Z,15.95
2019-02-14T05:19:47.074Z,16.82
2019-02-14T05:22:15.513Z,12.50
2019-02-14T05:24:44.049Z,15.50
2019-02-14T05:27:12.649Z,18.85
2019-02-14T05:29:41.119Z,12.68
2019-02-14T05:32:09.608Z,16.77
2019-02-14T05:34:38.076Z,17.60
2019-02-14T05:37:06.579Z,16.57
2019-02-14T05:39:35.051Z,20.90
2019-02-14T05:42:03.555Z,16.12
2019-02-14T05:44:32.152Z,20.80
2019-02-14T05:47:00.623Z,15.95
2019-02-14T05:49:29.142Z,20.92
2019-02-14T05:51:57.697Z,20.72
2019-02-14T05:54:26.201Z,21.57
2019-02-14T05:56:54.737Z,18.75
2019-02-14T05:59:23.181Z,19.70
2019-02-14T06:01:51.711Z,16.97
2019-02-14T06:04:20.247Z,14.70
2019-02-14T06:06:48.786Z,23.67
2019-02-14T06:09:17.233Z,24.40
2019-02-14T06:11:45.754Z,15.65
2019-02-14T06:14:14.195Z,19.52
2019-02-14T06:16:42.659Z,13.93
2019-02-14T06:19:11.178Z,19.20
2019-02-14T06:21:39.641Z,21.77
2019-02-14T06:24:08.125Z,19.57
2019-02-14T06:26:36.773Z,19.07
2019-02-14T06:29:05.271Z,12.50
2019-02-14T06:31:33.743Z,15.85
2019-02-14T06:34:02.189Z,16.32
2019-02-14T06:36:30.660Z,14.35
2019-02-14T06:38:59.149Z,10.10
2019-02-14T06:41:27.797Z,13.22
2019-02-14T06:43:56.362Z,11.45
2019-02-14T06:46:24.900Z,9.33
2019-02-14T06:48:53.458Z,10.18
2019-02-14T06:51:21.928Z,12.03
2019-02-14T06:53:50.344Z,10.45
2019-02-14T06:56:18.912Z,8.50
2019-02-14T06:58:47.538Z,11.78
2019-02-14T07:01:16.081Z,11.75
2019-02-14T07:03:44.726Z,10.43
2019-02-14T07:06:13.245Z,11.30
2019-02-14T07:08:41.780Z,11.50
2019-02-14T07:11:10.315Z,10.13
2019-02-14T07:13:38.835Z,12.45
2019-02-14T07:16:07.319Z,9.78
2019-02-14T07:18:35.965Z,12.47
2019-02-14T07:21:04.435Z,14.10
2019-02-14T07:23:32.943Z,13.08
2019-02-14T07:26:01.552Z,11.33
2019-02-14T07:28:30.081Z,14.65
2019-02-14T07:30:58.633Z,11.08
2019-02-14T07:33:27.187Z,13.15
2019-02-14T07:35:55.695Z,14.90
2019-02-14T07:38:24.273Z,12.25
2019-02-14T07:40:52.899Z,9.50
2019-02-14T07:43:21.474Z,14.20
2019-02-14T07:45:49.950Z,11.73
2019-02-14T07:48:18.422Z,9.43
2019-02-14T07:50:46.982Z,8.98
2019-02-14T07:53:15.542Z,11.48
2019-02-14T07:55:44.045Z,11.68
2019-02-14T07:58:12.621Z,12.40
2019-02-14T08:00:41.300Z,13.20
2019-02-14T08:03:09.843Z,10.32
2019-02-14T08:05:38.362Z,12.95
2019-02-14T08:08:06.932Z,9.93
2019-02-14T08:10:35.483Z,12.58
2019-02-14T08:13:04.017Z,13.53
2019-02-14T08:15:32.594Z,7.65
2019-02-14T08:18:01.174Z,12.03
2019-02-14T08:20:29.687Z,9.25
2019-02-14T08:22:58.255Z,12.03
2019-02-14T08:25:26.807Z,16.97
2019-02-14T08:27:55.268Z,9.15
2019-02-14T08:30:23.781Z,9.53
2019-02-14T08:32:52.332Z,12.40
2019-02-14T08:35:20.913Z,14.63
2019-02-14T08:37:49.381Z,10.85
2019-02-14T08:40:26.805Z,11.05
2019-02-14T08:42:55.401Z,12.50
2019-02-14T08:45:24.223Z,13.38
2019-02-14T08:47:52.874Z,13.43
2019-02-14T08:50:21.306Z,12.58
2019-02-14T08:52:49.777Z,16.15
2019-02-14T08:55:18.286Z,13.25
2019-02-14T08:57:46.796Z,12.58
2019-02-14T09:00:16.742Z,14.60
2019-02-14T09:02:45.262Z,13.48
2019-02-14T09:05:13.852Z,16.75
2019-02-14T09:07:42.409Z,11.05
2019-02-14T09:10:15.777Z,15.03
2019-02-14T09:12:44.232Z,14.03
2019-02-14T09:15:14.223Z,12.30
2019-02-14T09:17:42.785Z,16.35
2019-02-14T09:20:19.228Z,15.20
2019-02-14T09:22:47.724Z,12.43
2019-02-14T09:25:16.172Z,15.93
2019-02-14T09:27:44.621Z,14.73
2019-02-14T09:30:16.754Z,8.55
2019-02-14T09:32:45.240Z,16.42
2019-02-14T09:35:13.746Z,19.67
2019-02-14T09:37:42.274Z,15.43
2019-02-14T09:40:15.683Z,17.82
2019-02-14T09:42:44.160Z,14.33
2019-02-14T09:45:13.820Z,12.33
2019-02-14T09:47:42.420Z,14.45
2019-02-14T09:50:14.746Z,14.60
2019-02-14T09:52:43.243Z,14.05
2019-02-14T09:55:14.829Z,12.95
2019-02-14T09:57:43.277Z,16.85
2019-02-14T10:00:16.688Z,12.53
2019-02-14T10:02:45.209Z,13.83
2019-02-14T10:05:14.623Z,12.93
2019-02-14T10:07:43.139Z,19.25
2019-02-14T10:10:20.142Z,17.40
2019-02-14T10:12:48.634Z,16.15
2019-02-14T10:15:17.151Z,17.37
2019-02-14T10:17:45.674Z,13.93
2019-02-14T10:20:15.827Z,12.60
2019-02-14T10:22:44.318Z,14.30
2019-02-14T10:25:13.434Z,13.25
2019-02-14T10:27:41.960Z,12.88
2019-02-14T10:30:21.345Z,10.32
2019-02-14T10:32:49.891Z,12.63
2019-02-14T10:35:18.413Z,16.23
2019-02-14T10:37:46.906Z,10.95
2019-02-14T10:40:16.311Z,13.05
2019-02-14T10:42:44.838Z,13.88
2019-02-14T10:45:18.559Z,18.92
2019-02-14T10:47:47.036Z,14.13
2019-02-14T10:50:15.540Z,17.50
2019-02-14T10:52:44.231Z,12.47
2019-02-14T10:55:14.300Z,17.32
2019-02-14T10:57:42.890Z,15.35
2019-02-14T11:00:28.103Z,17.32
2019-02-14T11:02:56.559Z,18.77
2019-02-14T11:05:25.124Z,17.10
2019-02-14T11:07:53.830Z,17.30
2019-02-14T11:10:22.376Z,16.52
2019-02-14T11:12:50.933Z,16.42
2019-02-14T11:15:24.391Z,14.47
2019-02-14T11:17:52.807Z,17.12
2019-02-14T11:20:21.260Z,18.95
2019-02-14T11:22:49.843Z,20.65
2019-02-14T11:25:24.500Z,24.15
2019-02-14T11:27:53.118Z,22.40
2019-02-14T11:30:21.670Z,22.32
2019-02-14T11:32:50.120Z,18.87
2019-02-14T11:35:18.639Z,17.17
2019-02-14T11:37:47.262Z,16.07
2019-02-14T11:40:15.780Z,16.87
2019-02-14T11:42:44.346Z,20.05
2019-02-14T11:45:18.432Z,13.15
2019-02-14T11:50:14.777Z,19.80
2019-02-14T11:52:43.234Z,17.55
2019-02-14T11:55:11.990Z,17.85
2019-02-14T11:57:40.624Z,25.80
2019-02-14T12:00:13.618Z,19.62
2019-02-14T12:02:42.156Z,17.65
2019-02-14T12:05:10.735Z,18.12
2019-02-14T12:07:39.198Z,22.55
2019-02-14T12:10:13.531Z,19.80
2019-02-14T12:12:40.229Z,16.73
2019-02-14T12:15:10.628Z,16.45
2019-02-14T12:17:39.111Z,16.95
2019-02-14T12:20:12.844Z,17.67
2019-02-14T12:22:46.676Z,18.25
2019-02-14T12:25:17.476Z,19.70
2019-02-14T12:27:45.920Z,25.65
2019-02-14T12:30:15.320Z,21.75
2019-02-14T12:32:43.981Z,21.33
2019-02-14T12:35:12.488Z,24.12
2019-02-14T12:37:41.017Z,20.08
2019-02-14T12:40:11.822Z,22.22
2019-02-14T12:42:40.346Z,29.27
2019-02-14T12:45:20.096Z,36.68
2019-02-14T12:47:41.928Z,25.82
2019-02-14T12:50:10.446Z,28.55
2019-02-14T12:52:38.943Z,26.85
2019-02-14T12:55:07.423Z,24.55
2019-02-14T12:57:38.887Z,27.13
2019-02-14T13:00:13.133Z,22.40
2019-02-14T13:02:41.602Z,25.17
2019-02-14T13:05:10.093Z,26.20
2019-02-14T13:07:38.597Z,21.90
2019-02-14T13:10:10.391Z,25.02
2019-02-14T13:12:38.854Z,27.10
2019-02-14T13:15:10.836Z,26.68
2019-02-14T13:17:39.334Z,30.97
2019-02-14T13:20:08.785Z,22.67
2019-02-14T13:22:37.319Z,28.62
2019-02-14T13:25:08.854Z,27.22
2019-02-14T13:27:37.417Z,26.33
2019-02-14T13:30:15.476Z,30.60
2019-02-14T13:32:44.152Z,22.37
2019-02-14T13:35:12.744Z,22.58
2019-02-14T13:37:41.394Z,24.57
2019-02-14T13:40:09.906Z,22.35
2019-02-14T13:42:38.433Z,23.30
2019-02-14T13:45:10.534Z,26.80
2019-02-14T13:47:39.122Z,20.62
2019-02-14T13:50:10.119Z,23.15
2019-02-14T13:52:38.654Z,21.45
2019-02-14T13:55:09.282Z,22.67
2019-02-14T13:57:37.885Z,24.40
2019-02-14T14:00:12.822Z,31.60
2019-02-14T14:02:41.330Z,25.15
2019-02-14T14:05:09.848Z,29.18
2019-02-14T14:07:40.321Z,28.90
2019-02-14T14:10:09.830Z,33.23
2019-02-14T14:12:38.395Z,29.10
2019-02-14T14:15:09.094Z,29.18
2019-02-14T14:17:37.638Z,34.80
2019-02-14T14:20:07.668Z,28.12
2019-02-14T14:22:36.243Z,28.10
2019-02-14T14:25:06.443Z,23.10
2019-02-14T14:27:34.887Z,32.83
2019-02-14T14:30:05.049Z,33.42
2019-02-14T14:32:33.724Z,32.42
2019-02-14T14:35:02.162Z,29.77
2019-02-14T14:37:30.658Z,29.15
2019-02-14T14:39:59.260Z,30.08
2019-02-14T14:42:38.722Z,28.10
2019-02-14T14:45:09.407Z,31.42
2019-02-14T14:47:37.946Z,31.62
2019-02-14T14:50:07.952Z,25.97
2019-02-14T14:52:36.400Z,31.27
2019-02-14T14:55:05.808Z,24.35
2019-02-14T14:57:34.375Z,27.93
2019-02-14T15:00:03.191Z,32.42
2019-02-14T15:02:31.634Z,26.02
2019-02-14T15:05:00.308Z,26.35
2019-02-14T15:07:28.953Z,27.42
2019-02-14T15:09:57.958Z,22.73
2019-02-14T15:12:26.628Z,27.10
2019-02-14T15:14:55.181Z,25.85
2019-02-14T15:17:23.656Z,26.27
2019-02-14T15:19:52.146Z,27.00
2019-02-14T15:22:20.658Z,39.23
2019-02-14T15:24:49.137Z,34.98
2019-02-14T15:27:17.706Z,39.38
2019-02-14T15:29:46.162Z,33.98
2019-02-14T15:32:14.684Z,31.30
2019-02-14T15:34:43.182Z,33.65
2019-02-14T15:37:12.768Z,28.73
2019-02-14T15:39:41.842Z,27.30
2019-02-14T15:42:10.290Z,27.95
2019-02-14T15:44:38.846Z,28.98
2019-02-14T15:47:07.403Z,34.50
2019-02-14T15:49:35.867Z,30.70
2019-02-14T15:52:05.961Z,27.07
2019-02-14T15:54:35.261Z,36.10
2019-02-14T15:57:04.004Z,32.88
2019-02-14T15:59:32.538Z,34.60
2019-02-14T16:02:01.092Z,35.73
2019-02-14T16:04:31.347Z,34.33
2019-02-14T16:06:59.968Z,36.17
2019-02-14T16:09:28.421Z,42.35
2019-02-14T16:11:57.907Z,33.65
2019-02-14T16:14:26.631Z,29.37
2019-02-14T16:16:55.147Z,37.23
2019-02-14T16:19:23.715Z,41.00
2019-02-14T16:21:53.764Z,36.90
2019-02-14T16:24:22.363Z,35.80
2019-02-14T16:26:50.932Z,37.23
2019-02-14T16:29:19.391Z,34.03
2019-02-14T16:31:48.003Z,29.00
2019-02-14T16:34:16.609Z,33.13
2019-02-14T16:36:45.104Z,32.80
2019-02-14T16:39:13.567Z,31.80
2019-02-14T16:41:42.145Z,33.67
2019-02-14T16:44:10.720Z,34.53
2019-02-14T16:46:39.377Z,33.18
2019-02-14T16:49:08.056Z,23.80
2019-02-14T16:51:36.498Z,33.45
2019-02-14T16:54:05.369Z,28.17
2019-02-14T16:56:33.955Z,33.80
2019-02-14T16:59:02.578Z,31.15
2019-02-14T17:01:31.271Z,31.73
2019-02-14T17:03:59.815Z,44.13
2019-02-14T17:06:28.305Z,35.88
2019-02-14T17:08:56.901Z,32.93
2019-02-14T17:11:25.463Z,45.10
2019-02-14T17:13:53.953Z,34.40
2019-02-14T17:16:22.501Z,36.40
2019-02-14T17:18:51.148Z,39.92
2019-02-14T17:21:19.600Z,40.95
2019-02-14T17:23:48.105Z,35.05
2019-02-14T17:26:16.647Z,35.58
2019-02-14T17:28:45.178Z,35.10
2019-02-14T17:31:13.683Z,31.45
2019-02-14T17:33:42.265Z,36.03
2019-02-14T17:36:10.760Z,30.37
2019-02-14T17:38:39.265Z,33.83
2019-02-14T17:41:07.797Z,31.05
2019-02-14T17:43:36.297Z,34.98
2019-02-14T17:46:04.778Z,30.65
2019-02-14T17:48:33.331Z,29.63
2019-02-14T17:51:01.867Z,33.80
2019-02-14T17:53:30.379Z,34.33
2019-02-14T17:55:58.861Z,30.75
2019-02-14T17:58:27.315Z,38.35
2019-02-14T18:00:55.915Z,32.60
2019-02-14T18:03:24.492Z,31.23
2019-02-14T18:05:53.164Z,34.88
2019-02-14T18:08:21.594Z,28.67
2019-02-14T18:10:54.914Z,35.88
2019-02-14T18:13:20.324Z,31.00
2019-02-14T18:15:48.763Z,24.27
2019-02-14T18:18:17.267Z,22.17
2019-02-14T18:20:45.839Z,30.40
2019-02-14T18:23:14.415Z,30.60
2019-02-14T18:25:43.055Z,30.37
2019-02-14T18:28:11.612Z,22.60
2019-02-14T18:30:40.184Z,32.08
2019-02-14T18:33:08.803Z,33.98
2019-02-14T18:35:37.335Z,32.73
2019-02-14T18:38:05.848Z,28.30
2019-02-14T18:40:34.500Z,25.75
2019-02-14T18:43:02.916Z,22.67
2019-02-14T18:45:31.443Z,27.45
2019-02-14T18:48:00.139Z,30.80
2019-02-14T18:50:28.573Z,31.55
2019-02-14T18:52:57.199Z,22.93
2019-02-14T18:55:25.764Z,25.35
2019-02-14T18:57:54.322Z,16.37
2019-02-14T19:00:22.831Z,23.70
2019-02-14T19:02:51.501Z,25.00
2019-02-14T19:05:20.015Z,17.80
2019-02-14T19:07:48.493Z,24.80
2019-02-14T19:10:17.720Z,19.73
2019-02-14T19:12:46.325Z,23.22
2019-02-14T19:15:14.873Z,17.52
2019-02-14T19:17:43.493Z,18.23
2019-02-14T19:20:12.914Z,17.95
2019-02-14T19:22:42.038Z,20.90
2019-02-14T19:25:11.659Z,24.37
2019-02-14T19:27:40.234Z,26.05
2019-02-14T19:30:10.616Z,24.92
2019-02-14T19:32:39.128Z,34.55
2019-02-14T19:35:10.616Z,27.58
2019-02-14T19:37:39.193Z,26.17
2019-02-14T19:40:08.761Z,24.57
2019-02-14T19:42:37.223Z,27.82
2019-02-14T19:45:08.478Z,27.05
2019-02-14T19:47:36.973Z,23.45
2019-02-14T19:50:10.334Z,21.07
2019-02-14T19:52:38.904Z,24.55
2019-02-14T19:55:09.326Z,28.10
2019-02-14T19:57:37.851Z,25.40
2019-02-14T20:00:09.524Z,24.20
2019-02-14T20:02:38.054Z,23.35
2019-02-14T20:05:08.093Z,25.25
2019-02-14T20:07:36.684Z,23.18
2019-02-14T20:10:14.114Z,26.37
2019-02-14T20:12:42.768Z,23.52
2019-02-14T20:15:13.594Z,24.02
2019-02-14T20:17:45.192Z,24.07
2019-02-14T20:20:13.638Z,28.30
2019-02-14T20:22:42.159Z,20.05
2019-02-14T20:25:20.161Z,26.05
2019-02-14T20:27:50.079Z,24.50
2019-02-14T20:30:19.034Z,23.62
2019-02-14T20:32:47.689Z,20.82
2019-02-14T20:35:16.404Z,23.30
2019-02-14T20:37:45.017Z,21.48
2019-02-14T20:40:14.408Z,22.32
2019-02-14T20:42:43.113Z,22.17
2019-02-14T20:45:16.367Z,22.65
2019-02-14T20:47:47.850Z,23.10
2019-02-14T20:50:16.357Z,26.62
2019-02-14T20:52:46.669Z,25.27
2019-02-14T20:55:18.142Z,25.20
2019-02-14T20:57:46.673Z,25.08
2019-02-14T21:00:16.936Z,23.77
2019-02-14T21:02:45.417Z,27.90
2019-02-14T21:05:14.012Z,25.05
2019-02-14T21:07:42.533Z,25.10
2019-02-14T21:10:11.017Z,22.87
2019-02-14T21:12:39.461Z,26.20
2019-02-14T21:15:09.146Z,20.95
2019-02-14T21:17:37.652Z,27.75
2019-02-14T21:20:09.390Z,27.80
2019-02-14T21:22:37.923Z,24.77
2019-02-14T21:25:08.199Z,20.77
2019-02-14T21:27:36.629Z,24.67
2019-02-14T21:30:08.736Z,21.70
2019-02-14T21:32:37.447Z,20.25
2019-02-14T21:35:06.701Z,24.60
2019-02-14T21:37:35.114Z,25.35
2019-02-14T21:40:05.053Z,26.12
2019-02-14T21:42:33.615Z,24.20
2019-02-14T21:45:02.097Z,27.65
2019-02-14T21:47:30.717Z,22.05
2019-02-14T21:49:59.183Z,23.85
2019-02-14T21:52:27.633Z,25.45
2019-02-14T21:54:56.131Z,26.07
2019-02-14T21:57:24.689Z,25.43
2019-02-14T21:59:53.174Z,24.60
2019-02-14T22:02:21.816Z,26.42
2019-02-14T22:04:50.290Z,23.73
2019-02-14T22:07:18.729Z,26.75
2019-02-14T22:09:47.381Z,24.35
2019-02-14T22:12:15.967Z,26.23
2019-02-14T22:14:44.413Z,27.32
2019-02-14T22:17:13.130Z,24.50
2019-02-14T22:19:43.327Z,29.52
2019-02-14T22:22:11.728Z,24.12
2019-02-14T22:24:40.215Z,27.85
2019-02-14T22:27:08.734Z,24.15
2019-02-14T22:29:37.167Z,25.57
2019-02-14T22:32:05.811Z,21.40
2019-02-14T22:34:34.567Z,21.87
2019-02-14T22:37:03.042Z,24.60
2019-02-14T22:39:31.609Z,21.68
2019-02-14T22:42:00.168Z,21.20
2019-02-14T22:44:28.739Z,21.73
2019-02-14T22:46:57.304Z,19.80
2019-02-14T22:49:25.922Z,18.95
2019-02-14T22:51:54.438Z,20.92
2019-02-14T22:54:23.051Z,21.57
2019-02-14T22:56:51.661Z,18.02
2019-02-14T22:59:20.142Z,22.50
2019-02-14T23:01:48.722Z,20.50
2019-02-14T23:04:17.183Z,21.23
2019-02-14T23:06:45.705Z,18.48
2019-02-14T23:09:14.217Z,20.15
2019-02-14T23:11:42.878Z,24.52
2019-02-14T23:14:11.314Z,18.32
2019-02-14T23:16:39.895Z,20.10
2019-02-14T23:19:08.456Z,19.05
2019-02-14T23:21:37.541Z,16.48
2019-02-14T23:24:06.203Z,21.55
2019-02-14T23:26:34.756Z,14.45
2019-02-14T23:29:03.261Z,17.60
2019-02-14T23:31:31.801Z,15.38
2019-02-14T23:34:00.293Z,14.20
2019-02-14T23:36:28.886Z,17.20
2019-02-14T23:38:57.534Z,19.27
2019-02-14T23:41:26.164Z,13.93
2019-02-14T23:43:54.618Z,15.08
2019-02-14T23:46:23.063Z,13.10
2019-02-14T23:48:51.659Z,20.17
2019-02-14T23:51:22.451Z,16.42
2019-02-14T23:53:50.307Z,14.28
2019-02-14T23:56:18.791Z,16.60
2019-02-14T23:58:47.323Z,16.73
